Time;durP1;ratioP1;P1;durP2;ratioP2;P2;SDS_P1;SDS_P2;PMS_P1;PMS_P2;Temp;Humidity;BMP_temperature;BMP_pressure;BME280_temperature;BME280_humidity;BME280_pressure;Samples;Min_cycle;Max_cycle;Signal;HPM_P1;HPM_P2
2021/12/12 00:05:31;;;;;;;;;;;;;;;;;;;;;
2021/12/12 00:09:15;;;;;;;;;;;;;;;;;;;;;
2021/12/12 00:12:48;;;;;;;3.90;0.88;;;;;;;1.78;40.09;92598.63;4955273;28;20046;-96
2021/12/12 00:16:27;;;;;;;;;;;;;;;;;;;;;
2021/12/12 00:23:38;;;;;;;2.90;1.50;;;;;;;1.60;39.62;92576.34;4950561;28;20047;-95
2021/12/12 00:31:11;;;;;;;2.00;0.90;;;;;;;1.63;39.29;92583.66;4975238;28;20049;-96
2021/12/12 00:38:28;;;;;;;;;;;;;;;;;;;;;
2021/12/12 00:41:53;;;;;;;;;;;;;;;;;;;;;
2021/12/12 00:52:41;;;;;;;;;;;;;;;;;;;;;
2021/12/12 01:02:53;;;;;;;0.63;0.63;;;;;;;1.93;37.89;92616.22;4940219;29;20032;-95
2021/12/12 01:10:06;;;;;;;;;;;;;;;;;;;;;
2021/12/12 01:17:30;;;;;;;;;;;;;;;;;;;;;
2021/12/12 01:25:31;;;;;;;0.75;0.70;;;;;;;2.01;36.95;92649.44;4826009;29;20528;-95
2021/12/12 01:28:53;;;;;;;;;;;;;;;;;;;;;
2021/12/12 01:39:36;;;;;;;;;;;;;;;;;;;;;
2021/12/12 01:43:19;;;;;;;;;;;;;;;;;;;;;
2021/12/12 01:46:33;;;;;;;0.77;0.70;;;;;;;2.22;36.24;92671.25;4900703;29;20055;-96
2021/12/12 01:57:09;;;;;;;0.88;0.80;;;;;;;2.40;35.02;92662.53;4862091;29;20052;-96
2021/12/12 02:04:17;;;;;;;1.45;0.60;;;;;;;2.21;34.90;92680.03;4908552;29;20051;-95
2021/12/12 02:07:57;;;;;;;;;;;;;;;;;;;;;
2021/12/12 02:11:50;;;;;;;;;;;;;;;;;;;;;
2021/12/12 02:14:58;;;;;;;0.68;0.68;;;;;;;2.17;35.57;92674.53;4958479;28;20047;-96
2021/12/12 02:18:28;;;;;;;0.65;0.52;;;;;;;2.11;35.90;92670.28;4945559;29;20063;-95
2021/12/12 02:35:30;;;;;;;;;;;;;;;;;;;;;
2021/12/12 02:39:15;;;;;;;;;;;;;;;;;;;;;
2021/12/12 02:46:28;;;;;;;;;;;;;;;;;;;;;
2021/12/12 02:50:06;;;;;;;;;;;;;;;;;;;;;
2021/12/12 02:53:21;;;;;;;0.55;0.55;;;;;;;1.77;36.14;92682.25;4865266;29;20132;-95
2021/12/12 02:56:36;;;;;;;;;;;;;;;;;;;;;
2021/12/12 02:59:37;;;;;;;;;;;;;;;;;;;;;
2021/12/12 03:03:08;;;;;;;0.52;0.52;;;;;;;1.63;36.76;92676.56;4938053;29;20048;-95
2021/12/12 03:05:56;;;;;;;;;;;;;;;;;;;;;
2021/12/12 03:09:06;;;;;;;0.52;0.52;;;;;;;1.57;35.91;92693.72;4937805;29;20060;-95
2021/12/12 03:12:33;;;;;;;;;;;;;;;;;;;;;
2021/12/12 03:16:09;;;;;;;;;;;;;;;;;;;;;
2021/12/12 03:19:21;;;;;;;0.60;0.60;;;;;;;1.66;35.71;92689.78;4957937;29;20090;-96
2021/12/12 03:22:50;;;;;;;;;;;;;;;;;;;;;
2021/12/12 03:29:45;;;;;;;;;;;;;;;;;;;;;
2021/12/12 03:33:25;;;;;;;;;;;;;;;;;;;;;
2021/12/12 03:36:37;;;;;;;0.52;0.52;;;;;;;1.95;33.68;92717.47;4934151;29;20039;-95
2021/12/12 03:40:22;;;;;;;;;;;;;;;;;;;;;
2021/12/12 03:44:05;;;;;;;0.50;0.50;;;;;;;2.11;33.81;92711.59;4933866;29;20052;-96
2021/12/12 03:54:27;;;;;;;;;;;;;;;;;;;;;
2021/12/12 03:57:45;;;;;;;;;;;;;;;;;;;;;
2021/12/12 04:01:57;;;;;;;;;;;;;;;;;;;;;
2021/12/12 04:09:02;;;;;;;;;;;;;;;;;;;;;
2021/12/12 04:12:16;;;;;;;0.77;0.75;;;;;;;1.78;35.61;92723.34;4948953;28;20122;-96
2021/12/12 04:15:58;;;;;;;0.65;0.60;;;;;;;1.70;36.05;92725.47;4925946;29;20074;-96
2021/12/12 04:19:02;;;;;;;;;;;;;;;;;;;;;
2021/12/12 04:30:27;;;;;;;;;;;;;;;;;;;;;
2021/12/12 04:33:59;;;;;;;;;;;;;;;;;;;;;
2021/12/12 04:41:31;;;;;;;0.68;0.65;;;;;;;2.38;35.20;92762.75;4878790;29;20057;-96
2021/12/12 04:45:09;;;;;;;0.50;0.50;;;;;;;2.40;34.43;92745.22;4875386;29;20057;-96
2021/12/12 05:00:14;;;;;;;;;;;;;;;;;;;;;
2021/12/12 05:08:09;;;;;;;;;;;;;;;;;;;;;
2021/12/12 05:11:32;;;;;;;;;;;;;;;;;;;;;
2021/12/12 05:19:00;;;;;;;;;;;;;;;;;;;;;
2021/12/12 05:22:18;;;;;;;0.60;0.60;;;;;;;2.60;33.86;92806.84;4877021;29;20068;-95
2021/12/12 05:33:06;;;;;;;;;;;;;;;;;;;;;
2021/12/12 05:36:21;;;;;;;;;;;;;;;;;;;;;
2021/12/12 05:40:05;;;;;;;;;;;;;;;;;;;;;
2021/12/12 05:43:10;;;;;;;0.70;0.63;;;;;;;2.34;34.84;92834.75;4953596;28;20067;-96
2021/12/12 05:46:26;;;;;;;1.05;0.60;;;;;;;2.25;34.88;92812.84;4940375;29;20494;-96
2021/12/12 05:49:33;;;;;;;;;;;;;;;;;;;;;
2021/12/12 05:52:54;;;;;;;;;;;;;;;;;;;;;
2021/12/12 05:56:15;;;;;;;;;;;;;;;;;;;;;
2021/12/12 06:10:13;;;;;;;0.60;0.60;;;;;;;2.41;35.11;92847.53;4920626;29;20054;-94
2021/12/12 06:13:16;;;;;;;;;;;;;;;;;;;;;
2021/12/12 06:17:05;;;;;;;;;;;;;;;;;;;;;
2021/12/12 06:20:29;;;;;;;;;;;;;;;;;;;;;
2021/12/12 06:34:34;;;;;;;;;;;;;;;;;;;;;
2021/12/12 06:42:18;;;;;;;;;;;;;;;;;;;;;
2021/12/12 06:49:01;;;;;;;;;;;;;;;;;;;;;
2021/12/12 06:52:22;;;;;;;0.70;0.70;;;;;;;2.63;34.01;92883.94;4949573;29;20055;-92
2021/12/12 06:55:47;;;;;;;;;;;;;;;;;;;;;
2021/12/12 06:58:48;;;;;;;0.60;0.60;;;;;;;2.44;34.23;92878.13;4971995;29;20031;-92
2021/12/12 07:01:58;;;;;;;1.80;0.70;;;;;;;2.50;33.76;92884.97;4966590;29;20089;-95
2021/12/12 07:08:51;;;;;;;;;;;;;;;;;;;;;
2021/12/12 08:03:31;;;;;;;;;;;;;;;;;;;;;
2021/12/12 08:08:14;;;;;;;;;;;;;;;;;;;;;
2021/12/12 08:11:36;;;;;;;;;;;;;;;;;;;;;
2021/12/12 08:21:21;;;;;;;1.30;0.85;;;;;;;23.22;10.51;92918.44;4994481;28;20105;-78
2021/12/12 08:23:48;;;;;;;1.08;0.73;;;;;;;23.54;10.08;92920.91;4978231;28;20038;-78
2021/12/12 08:26:14;;;;;;;1.70;1.00;;;;;;;23.73;10.15;92920.81;5008634;28;20026;-78
2021/12/12 08:28:40;;;;;;;1.65;0.95;;;;;;;24.06;10.03;92927.47;4983976;28;20034;-78
2021/12/12 08:31:07;;;;;;;1.67;1.13;;;;;;;23.10;11.06;92926.59;4980270;28;20418;-78
2021/12/12 08:33:33;;;;;;;2.58;1.27;;;;;;;23.40;11.05;92922.19;4975666;28;20392;-78
2021/12/12 08:35:59;;;;;;;1.20;0.80;;;;;;;23.05;10.19;92923.09;4990878;28;20121;-78
2021/12/12 08:38:25;;;;;;;1.55;1.02;;;;;;;23.68;9.86;92932.56;4992523;28;20034;-77
2021/12/12 08:40:56;;;;;;;1.00;0.70;;;;;;;23.48;9.16;92926.56;4960057;28;20458;-79
2021/12/12 08:43:25;;;;;;;2.53;1.30;;;;;;;22.60;10.63;92929.06;4973551;28;20042;-78
2021/12/12 08:45:55;;;;;;;1.90;1.20;;;;;;;21.98;11.21;92939.53;4990863;28;20022;-78
2021/12/12 08:48:24;;;;;;;4.60;1.60;;;;;;;22.01;11.74;92941.47;4990474;28;20030;-78
2021/12/12 08:50:54;;;;;;;2.25;1.00;;;;;;;20.82;12.02;92947.63;4990730;28;20036;-78
2021/12/12 08:53:20;;;;;;;1.48;0.90;;;;;;;19.31;13.24;92949.09;4990459;28;20018;-78
2021/12/12 08:55:49;;;;;;;1.75;0.98;;;;;;;18.84;15.43;92951.28;4997154;28;20476;-78
2021/12/12 08:58:19;;;;;;;2.38;1.10;;;;;;;17.80;15.64;92952.72;4994083;28;20053;-78
2021/12/12 09:00:50;;;;;;;3.50;1.30;;;;;;;16.89;17.98;92957.34;4996007;28;20565;-78
2021/12/12 09:03:49;;;;;;;2.42;1.10;;;;;;;17.61;17.50;92966.38;5013668;28;20037;-78
2021/12/12 09:06:16;;;;;;;1.88;1.10;;;;;;;19.02;16.13;92957.97;5007609;28;20084;-77
2021/12/12 09:08:50;;;;;;;1.60;0.90;;;;;;;20.32;13.73;92957.56;4996141;28;20030;-78
2021/12/12 09:11:38;;;;;;;1.92;1.10;;;;;;;20.75;13.40;92958.81;4995257;28;20118;-77
2021/12/12 09:14:18;;;;;;;3.17;1.33;;;;;;;21.58;13.03;92961.78;5013749;28;20057;-81
2021/12/12 09:16:54;;;;;;;1.92;1.15;;;;;;;19.45;14.73;92966.63;4993820;28;20034;-79
2021/12/12 09:19:25;;;;;;;3.35;1.50;;;;;;;18.90;16.28;92969.34;4975674;28;20050;-78
2021/12/12 09:21:57;;;;;;;2.63;1.40;;;;;;;19.79;16.17;92967.34;4994123;28;20030;-78
2021/12/12 09:24:45;;;;;;;2.72;1.40;;;;;;;20.11;16.00;92965.69;4993477;28;20064;-78
2021/12/12 09:27:18;;;;;;;4.05;1.40;;;;;;;19.79;16.97;92967.34;4975966;28;20066;-78
2021/12/12 09:29:57;;;;;;;3.83;1.58;;;;;;;17.55;18.88;92979.00;4993892;28;20038;-78
2021/12/12 09:32:56;;;;;;;2.30;1.13;;;;;;;17.40;19.10;92979.50;4963214;28;20465;-78
2021/12/12 09:35:22;;;;;;;1.60;0.95;;;;;;;16.88;18.97;92987.53;4993574;28;20400;-77
2021/12/12 09:37:55;;;;;;;2.70;1.23;;;;;;;15.62;19.88;92977.34;4976166;28;20034;-77
2021/12/12 09:40:42;;;;;;;3.35;1.17;;;;;;;16.24;19.07;92984.38;4998472;28;20077;-77
2021/12/12 09:43:14;;;;;;;3.75;1.58;;;;;;;16.19;18.64;92989.06;4994937;28;20369;-78
2021/12/12 09:45:59;;;;;;;1.83;0.93;;;;;;;14.29;20.55;92998.19;5013615;28;20038;-78
2021/12/12 09:51:55;;;;;;;1.85;1.00;;;;;;;14.84;20.25;92998.06;4978889;28;20384;-78
2021/12/12 09:54:38;;;;;;;2.88;1.38;;;;;;;14.63;20.41;92996.94;4993054;28;20031;-77
2021/12/12 09:57:19;;;;;;;4.53;1.48;;;;;;;13.83;21.72;92999.13;5016223;28;20038;-77
2021/12/12 10:00:10;;;;;;;3.17;1.38;;;;;;;12.45;23.23;93000.34;4979208;28;20038;-78
2021/12/12 10:03:07;;;;;;;5.35;1.63;;;;;;;11.94;26.02;93010.75;5010009;28;20042;-77
2021/12/12 10:05:54;;;;;;;3.50;1.30;;;;;;;12.10;24.31;93006.84;4992870;28;20112;-78
2021/12/12 10:08:23;;;;;;;2.28;1.25;;;;;;;12.71;22.69;93007.84;4985118;28;20044;-78
2021/12/12 10:11:09;;;;;;;3.63;1.35;;;;;;;13.32;21.39;93006.09;4994065;28;20446;-77
2021/12/12 10:13:45;;;;;;;3.00;1.40;;;;;;;13.79;22.21;92998.94;5012104;28;20030;-77
2021/12/12 10:16:28;;;;;;;4.35;1.40;;;;;;;13.73;20.67;93002.72;5012406;28;20121;-78
2021/12/12 10:19:01;;;;;;;3.92;1.52;;;;;;;12.69;21.62;92997.63;4978439;28;20072;-78
2021/12/12 10:21:47;;;;;;;3.13;1.45;;;;;;;11.84;26.54;93007.16;4975089;28;20496;-77
2021/12/12 10:24:21;;;;;;;5.25;1.83;;;;;;;11.28;28.24;93015.63;4956747;28;20030;-78
2021/12/12 10:27:00;;;;;;;3.28;1.50;;;;;;;11.60;25.25;93009.00;4971638;28;20042;-78
2021/12/12 10:30:00;;;;;;;5.45;2.42;;;;;;;11.14;28.88;93015.47;4972698;28;20057;-77
2021/12/12 10:32:32;;;;;;;5.28;2.20;;;;;;;10.61;30.15;93024.00;4964676;28;20459;-77
2021/12/12 10:35:03;;;;;;;5.80;2.47;;;;;;;11.58;30.54;93019.00;4961387;28;20101;-77
2021/12/12 10:37:54;;;;;;;4.63;2.28;;;;;;;12.09;29.23;93010.53;4992408;28;20104;-77
2021/12/12 10:40:37;;;;;;;3.63;1.90;;;;;;;12.80;26.66;93029.00;5006422;28;20056;-77
2021/12/12 10:43:08;;;;;;;7.47;2.30;;;;;;;12.61;28.08;93021.13;4982146;28;20462;-78
2021/12/12 10:45:40;;;;;;;8.10;2.17;;;;;;;11.46;30.86;93035.09;4991745;28;20034;-77
2021/12/12 10:48:12;;;;;;;8.38;3.03;;;;;;;11.86;29.43;93031.25;4992062;28;20403;-77
2021/12/12 10:50:38;;;;;;;5.10;2.67;;;;;;;12.62;28.37;93031.34;4979165;28;20027;-77
2021/12/12 10:53:03;;;;;;;7.25;2.75;;;;;;;13.04;28.15;93036.78;4971612;28;20019;-77
2021/12/12 10:55:53;;;;;;;6.22;2.22;;;;;;;11.97;28.79;93033.78;4972176;28;20488;-77
2021/12/12 10:58:37;;;;;;;6.95;2.78;;;;;;;11.06;29.99;93029.19;4946248;28;20516;-78
2021/12/12 11:01:15;;;;;;;7.68;2.70;;;;;;;11.38;29.85;93038.31;4971090;28;20041;-77
2021/12/12 11:03:48;;;;;;;6.05;2.33;;;;;;;11.66;28.82;93036.72;4955017;28;20284;-77
2021/12/12 11:06:22;;;;;;;5.43;2.47;;;;;;;11.48;27.89;93029.56;5003717;28;20043;-78
2021/12/12 11:08:59;;;;;;;5.20;2.40;;;;;;;10.46;29.89;93047.66;4971023;28;20492;-77
2021/12/12 11:11:49;;;;;;;7.70;2.72;;;;;;;9.79;30.81;93042.75;4954431;28;20473;-78
2021/12/12 11:14:24;;;;;;;9.57;2.35;;;;;;;10.01;29.91;93047.59;4968795;28;20408;-78
2021/12/12 11:16:55;;;;;;;5.00;2.50;;;;;;;9.78;29.87;93043.00;4973146;28;20049;-78
2021/12/12 11:19:34;;;;;;;7.85;2.83;;;;;;;9.49;30.40;93048.03;4974726;28;20519;-78
2021/12/12 11:22:34;;;;;;;7.47;2.70;;;;;;;10.17;29.50;93045.69;4991303;28;20512;-78
2021/12/12 11:25:33;;;;;;;6.15;2.45;;;;;;;10.15;29.13;93055.63;4992918;28;20096;-77
2021/12/12 11:28:04;;;;;;;6.97;2.47;;;;;;;10.11;28.98;93046.78;4994433;28;20050;-76
2021/12/12 11:30:44;;;;;;;5.97;2.53;;;;;;;9.16;30.46;93060.63;4998711;28;20021;-77
2021/12/12 11:33:12;;;;;;;6.53;2.50;;;;;;;9.37;31.59;93049.13;4997567;28;20021;-77
2021/12/12 11:35:42;;;;;;;5.88;2.38;;;;;;;9.25;30.77;93051.22;4998665;28;20064;-77
2021/12/12 11:38:36;;;;;;;6.82;2.83;;;;;;;9.11;31.90;93050.97;5015689;28;20483;-77
2021/12/12 11:41:15;;;;;;;5.28;2.42;;;;;;;8.89;32.96;93056.47;5007897;28;20030;-76
2021/12/12 11:44:13;;;;;;;6.88;2.97;;;;;;;9.26;30.92;93057.25;5011651;28;20195;-79
2021/12/12 11:46:47;;;;;;;7.63;2.63;;;;;;;9.21;30.71;93055.41;5003045;28;20054;-77
2021/12/12 11:49:24;;;;;;;7.25;2.85;;;;;;;9.06;30.40;93053.59;5001998;28;20034;-80
2021/12/12 11:51:56;;;;;;;3.97;2.10;;;;;;;9.18;31.55;93059.31;4971437;28;20038;-77
2021/12/12 11:54:53;;;;;;;5.55;3.10;;;;;;;8.33;32.26;93049.34;5003128;28;20060;-77
2021/12/12 11:57:25;;;;;;;6.25;2.67;;;;;;;8.52;31.20;93049.66;4981812;28;20487;-79
2021/12/12 11:59:59;;;;;;;38.28;15.38;;;;;;;8.41;31.02;93039.47;5004134;28;20451;-77
2021/12/12 12:02:35;;;;;;;33.00;14.27;;;;;;;7.85;31.62;93046.06;4998739;28;20454;-77
2021/12/12 12:05:06;;;;;;;13.43;6.25;;;;;;;8.59;30.76;93052.00;5011554;28;20084;-77
2021/12/12 12:08:11;;;;;;;36.15;13.43;;;;;;;8.49;31.09;93044.19;5010706;28;20419;-77
2021/12/12 12:10:46;;;;;;;6.88;3.00;;;;;;;8.91;31.14;93041.31;4978966;28;20081;-77
2021/12/12 12:13:31;;;;;;;20.00;5.90;;;;;;;8.54;31.41;93050.19;4994217;28;20498;-77
2021/12/12 12:16:29;;;;;;;19.75;9.73;;;;;;;8.85;30.92;93047.59;4992610;28;20099;-78
2021/12/12 12:21:58;;;;;;;9.77;4.07;;;;;;;8.84;30.29;93045.25;6008147;23;20021;-78
2021/12/12 12:24:44;;;;;;;6.53;2.60;;;;;;;8.60;31.24;93044.97;5045246;23;20545;-76
2021/12/12 12:27:27;;;;;;;6.18;2.65;;;;;;;8.74;29.78;93038.97;5004806;28;20042;-76
2021/12/12 12:30:03;;;;;;;7.45;3.22;;;;;;;8.73;30.07;93044.44;5014157;28;20438;-76
2021/12/12 12:33:06;;;;;;;8.35;2.65;;;;;;;9.41;30.19;93032.91;5024468;28;20017;-75
2021/12/12 12:35:38;;;;;;;4.40;2.05;;;;;;;8.26;30.46;93045.41;5015979;28;20029;-74
2021/12/12 12:38:42;;;;;;;5.60;2.47;;;;;;;9.05;29.89;93040.78;5032554;28;20426;-74
2021/12/12 12:41:29;;;;;;;6.60;2.35;;;;;;;9.63;29.63;93033.34;5027338;28;20025;-74
2021/12/12 12:44:32;;;;;;;3.45;2.00;;;;;;;8.77;29.78;93048.09;5034748;28;20255;-75
2021/12/12 12:47:16;;;;;;;;;;;;;;;8.29;29.89;93042.28;5015785;28;20064;-74
2021/12/12 12:50:03;;;;;;;4.53;2.08;;;;;;;9.00;30.04;93038.19;5034880;28;19913;-74
2021/12/12 12:53:10;;;;;;;4.85;2.10;;;;;;;9.80;28.14;93033.84;5016845;28;20030;-75
2021/12/12 12:56:08;;;;;;;5.28;2.33;;;;;;;10.09;27.39;93033.19;4997527;28;20034;-75
2021/12/12 12:59:18;;;;;;;4.53;2.25;;;;;;;9.96;27.42;93033.78;5016385;28;20037;-75
2021/12/12 13:02:12;;;;;;;4.15;1.95;;;;;;;9.26;28.02;93042.34;4980396;28;20037;-75
2021/12/12 13:04:56;;;;;;;4.85;2.00;;;;;;;8.96;29.45;93036.09;5015103;28;20026;-74
2021/12/12 13:07:37;;;;;;;6.78;2.58;;;;;;;9.04;29.77;93040.00;5016028;28;20040;-75
2021/12/12 13:10:08;;;;;;;5.13;1.98;;;;;;;8.92;29.10;93031.66;5002343;28;20049;-74
2021/12/12 13:12:48;;;;;;;5.73;2.60;;;;;;;8.70;30.20;93039.75;5034375;28;20077;-74
2021/12/12 13:15:31;;;;;;;5.70;2.67;;;;;;;8.66;30.51;93034.25;5034476;28;20037;-74
2021/12/12 13:18:21;;;;;;;7.25;2.50;;;;;;;8.84;30.26;93040.78;5034460;28;20033;-75
2021/12/12 13:21:16;;;;;;;6.13;2.13;;;;;;;8.33;30.02;93043.31;5009255;28;20121;-75
2021/12/12 13:23:59;;;;;;;8.98;2.47;;;;;;;8.63;30.50;93039.25;5014312;28;20053;-75
2021/12/12 13:26:54;;;;;;;5.65;2.45;;;;;;;8.39;29.86;93034.47;5014246;28;20041;-75
2021/12/12 13:29:50;;;;;;;11.88;3.35;;;;;;;7.69;31.60;93042.59;4997333;28;20659;-75
2021/12/12 13:32:27;;;;;;;8.73;2.70;;;;;;;7.96;30.41;93041.66;5028068;28;20037;-73
2021/12/12 13:35:25;;;;;;;40.83;16.08;;;;;;;8.68;29.77;93044.44;5029350;28;20038;-75
2021/12/12 13:38:00;;;;;;;611.33;198.80;;;;;;;9.33;29.23;93036.84;5032865;28;20254;-74
2021/12/12 13:40:56;;;;;;;39.63;12.27;;;;;;;9.24;29.62;93043.66;5015166;28;20048;-75
2021/12/12 13:43:50;;;;;;;17.77;7.68;;;;;;;9.41;29.67;93035.50;5013879;28;20063;-75
2021/12/12 13:46:55;;;;;;;7.82;2.80;;;;;;;9.55;28.85;93044.38;5032688;28;20045;-74
2021/12/12 13:49:25;;;;;;;72.50;29.88;;;;;;;9.51;29.30;93038.13;5033520;28;20538;-74
2021/12/12 13:52:15;;;;;;;46.80;23.52;;;;;;;9.67;28.30;93042.25;5033509;28;20115;-73
2021/12/12 13:55:12;;;;;;;8.63;2.85;;;;;;;9.90;30.31;93040.06;5012949;28;20033;-75
2021/12/12 13:58:00;;;;;;;62.17;25.13;;;;;;;10.31;29.17;93050.38;5004766;28;20104;-75
2021/12/12 14:00:30;;;;;;;8.55;2.97;;;;;;;10.44;27.38;93044.53;5013380;28;20125;-74
2021/12/12 14:03:09;;;;;;;4.78;2.38;;;;;;;9.86;27.52;93046.88;4995492;28;20037;-75
2021/12/12 14:05:42;;;;;;;132.75;46.78;;;;;;;9.84;28.50;93047.16;5013252;28;20044;-74
2021/12/12 14:08:13;;;;;;;30.15;12.30;;;;;;;9.49;29.08;93050.66;5007946;28;20034;-74
2021/12/12 14:10:55;;;;;;;7.68;3.20;;;;;;;9.55;28.28;93044.38;5032862;28;20037;-74
2021/12/12 14:13:30;;;;;;;40.22;14.27;;;;;;;9.59;29.13;93056.66;5032766;28;20072;-75
2021/12/12 14:16:24;;;;;;;7.65;3.17;;;;;;;9.70;30.96;93057.38;5029469;28;20087;-75
2021/12/12 14:18:59;;;;;;;8.20;3.25;;;;;;;9.99;31.40;93059.38;5032768;28;20045;-74
2021/12/12 14:21:25;;;;;;;6.85;2.90;;;;;;;10.32;30.61;93059.78;5032547;28;20107;-75
2021/12/12 14:23:51;;;;;;;8.57;3.00;;;;;;;10.51;29.01;93065.19;5032297;28;20359;-74
2021/12/12 14:26:25;;;;;;;7.07;2.75;;;;;;;10.58;29.71;93061.22;5032717;28;20406;-74
2021/12/12 14:28:54;;;;;;;6.25;2.60;;;;;;;10.76;30.55;93072.09;5014773;28;20393;-75
2021/12/12 14:31:33;;;;;;;7.30;2.78;;;;;;;10.96;30.60;93064.06;5032633;28;20521;-74
2021/12/12 14:34:15;;;;;;;5.93;2.75;;;;;;;11.10;30.66;93060.84;5032197;28;20033;-74
2021/12/12 14:36:51;;;;;;;8.27;2.58;;;;;;;11.18;30.67;93066.25;5029574;28;20057;-74
2021/12/12 14:39:20;;;;;;;7.57;3.00;;;;;;;11.05;29.96;93069.50;5017753;28;20033;-75
2021/12/12 14:41:57;;;;;;;4.93;2.63;;;;;;;11.11;29.26;93068.44;5014400;28;20068;-74
2021/12/12 14:44:44;;;;;;;7.50;3.00;;;;;;;10.60;31.78;93063.53;5020605;28;20086;-74
2021/12/12 14:47:16;;;;;;;5.45;2.95;;;;;;;9.92;32.51;93064.13;4996910;28;20036;-75
2021/12/12 14:49:48;;;;;;;11.85;3.00;;;;;;;9.41;32.90;93080.72;5015723;28;20422;-74
2021/12/12 14:52:19;;;;;;;;;;;;;;;8.92;33.65;93079.44;5018485;28;20069;-73
2021/12/12 14:54:59;;;;;;;10.05;2.80;;;;;;;8.47;34.35;93083.56;5016702;28;20306;-73
2021/12/12 14:57:33;;;;;;;6.40;2.90;;;;;;;8.11;34.94;93082.66;5012061;28;20565;-74
2021/12/12 15:00:11;;;;;;;7.20;2.75;;;;;;;7.78;35.64;93083.81;5012484;28;20398;-76
2021/12/12 15:02:51;;;;;;;6.50;2.88;;;;;;;7.49;35.96;93074.53;5012481;28;20044;-74
2021/12/12 15:06:00;;;;;;;5.57;2.53;;;;;;;7.30;36.40;93091.63;5001092;28;20029;-73
2021/12/12 15:08:31;;;;;;;5.50;2.30;;;;;;;7.13;37.23;93083.97;4945533;29;20042;-73
2021/12/12 15:11:03;;;;;;;8.43;3.00;;;;;;;6.85;37.85;93091.03;4916450;29;20067;-73
2021/12/12 15:13:32;;;;;;;6.53;2.60;;;;;;;6.68;39.28;93090.38;4975851;28;20487;-72
2021/12/12 15:16:03;;;;;;;8.80;3.08;;;;;;;6.55;39.82;93085.56;4978408;28;20041;-73
2021/12/12 15:18:39;;;;;;;10.68;2.95;;;;;;;6.42;40.44;93090.13;5007040;28;20072;-73
2021/12/12 15:21:10;;;;;;;10.00;3.17;;;;;;;6.24;40.73;93090.47;5023835;28;20376;-74
2021/12/12 15:23:38;;;;;;;9.55;3.17;;;;;;;6.11;41.22;93083.06;4985850;28;20033;-73
2021/12/12 15:26:18;;;;;;;7.28;2.70;;;;;;;6.00;42.22;93085.53;5026807;28;20325;-72
2021/12/12 15:28:45;;;;;;;7.10;2.90;;;;;;;5.73;43.48;93089.84;5012853;28;20451;-73
2021/12/12 15:31:15;;;;;;;8.80;3.17;;;;;;;5.49;43.59;93092.66;5009077;28;20021;-73
2021/12/12 15:33:46;;;;;;;6.45;2.65;;;;;;;5.39;44.44;93090.72;5026695;28;20065;-73
2021/12/12 15:36:15;;;;;;;6.30;2.55;;;;;;;5.23;45.08;93096.72;5031812;28;20040;-74
2021/12/12 15:38:45;;;;;;;6.07;2.70;;;;;;;5.08;43.30;93089.50;5030946;28;20025;-72
2021/12/12 15:41:22;;;;;;;6.45;2.60;;;;;;;4.96;43.87;93094.00;5018386;28;20034;-75
2021/12/12 15:43:57;;;;;;;6.20;2.75;;;;;;;4.82;44.20;93090.94;5012687;28;20563;-74
2021/12/12 15:46:26;;;;;;;6.93;2.33;;;;;;;4.72;44.43;93086.34;5011402;28;20439;-73
2021/12/12 15:49:04;;;;;;;7.40;2.90;;;;;;;4.65;45.55;93095.31;5018346;28;20036;-73
2021/12/12 15:51:31;;;;;;;7.03;3.17;;;;;;;4.57;45.84;93094.69;5028892;28;20045;-73
2021/12/12 15:54:04;;;;;;;6.88;3.10;;;;;;;4.47;44.92;93089.31;5017546;28;20100;-72
2021/12/12 15:56:51;;;;;;;5.93;2.58;;;;;;;4.37;45.23;93097.69;5014896;28;20040;-73
2021/12/12 15:59:27;;;;;;;7.32;2.50;;;;;;;4.26;45.12;93098.53;5030917;28;20087;-72
2021/12/12 16:02:01;;;;;;;8.38;3.95;;;;;;;4.16;45.61;93100.94;5013371;28;20171;-71
2021/12/12 16:04:30;;;;;;;9.93;3.63;;;;;;;4.10;45.56;93094.88;5030671;28;20402;-72
2021/12/12 16:06:58;;;;;;;5.63;2.30;;;;;;;4.04;45.58;93100.19;5013563;28;20053;-72
2021/12/12 16:09:30;;;;;;;6.32;2.83;;;;;;;3.96;45.91;93104.72;4993829;28;20053;-74
2021/12/12 16:12:10;;;;;;;19.55;7.68;;;;;;;3.87;45.90;93100.94;5000771;28;20046;-75
2021/12/12 16:14:39;;;;;;;26.95;10.98;;;;;;;3.82;46.00;93102.63;5005421;28;20052;-72
2021/12/12 16:17:15;;;;;;;22.08;8.55;;;;;;;3.71;46.40;93102.41;5029572;28;20041;-73
2021/12/12 16:19:42;;;;;;;22.52;9.85;;;;;;;3.69;47.09;93109.63;5030917;28;20080;-72
2021/12/12 16:22:18;;;;;;;15.63;7.70;;;;;;;3.60;46.94;93115.38;5025031;28;20051;-74
2021/12/12 16:24:49;;;;;;;20.40;10.68;;;;;;;3.53;46.13;93113.72;5031038;28;20498;-73
2021/12/12 16:27:19;;;;;;;23.92;10.60;;;;;;;3.47;46.56;93112.03;5013167;28;20116;-74
2021/12/12 16:29:57;;;;;;;12.48;5.40;;;;;;;3.40;46.19;93107.97;5030825;28;20043;-80
2021/12/12 16:32:31;;;;;;;18.33;7.78;;;;;;;3.38;46.22;93113.38;5023406;28;20057;-76
2021/12/12 16:35:01;;;;;;;12.57;5.65;;;;;;;3.33;46.90;93113.25;5030533;28;20486;-74
2021/12/12 16:37:34;;;;;;;14.68;7.13;;;;;;;3.25;47.10;93114.41;4998575;28;20042;-75
2021/12/12 16:40:13;;;;;;;35.08;14.07;;;;;;;3.22;46.57;93114.84;5026038;28;20346;-76
2021/12/12 16:42:47;;;;;;;119.93;41.90;;;;;;;3.18;46.35;93115.53;5017061;28;20022;-76
2021/12/12 16:45:22;;;;;;;93.35;33.55;;;;;;;3.13;46.88;93117.00;5004054;28;20071;-75
2021/12/12 16:47:53;;;;;;;78.03;25.20;;;;;;;3.09;48.29;93115.06;5027135;28;20560;-74
2021/12/12 16:50:27;;;;;;;57.75;18.58;;;;;;;3.05;48.22;93117.31;5019421;28;20092;-75
2021/12/12 16:52:55;;;;;;;46.38;19.50;;;;;;;3.01;47.16;93111.00;5005945;28;20405;-75
2021/12/12 16:55:22;;;;;;;92.32;39.15;;;;;;;3.01;46.95;93113.59;5024068;28;20068;-75
2021/12/12 16:57:53;;;;;;;43.45;21.35;;;;;;;3.03;46.53;93111.56;5004826;28;20033;-77
2021/12/12 17:00:23;;;;;;;37.53;17.77;;;;;;;3.02;47.18;93110.00;5031685;28;20033;-77
2021/12/12 17:02:52;;;;;;;49.58;23.13;;;;;;;2.99;47.60;93107.84;5022718;28;20030;-75
2021/12/12 17:05:29;;;;;;;20.27;8.88;;;;;;;2.96;47.90;93108.31;5017036;28;20025;-76
2021/12/12 17:08:14;;;;;;;14.65;5.93;;;;;;;2.93;48.44;93108.75;4993086;28;20064;-76
2021/12/12 17:10:55;;;;;;;20.83;9.38;;;;;;;2.96;47.64;93110.13;5010872;28;20052;-75
2021/12/12 17:13:21;;;;;;;17.35;8.73;;;;;;;2.94;48.38;93105.16;5010882;28;20368;-76
2021/12/12 17:15:49;;;;;;;26.02;10.75;;;;;;;2.89;48.37;93102.47;4984001;28;20116;-76
2021/12/12 17:18:18;;;;;;;24.13;11.93;;;;;;;2.88;47.97;93103.47;5016397;28;20451;-76
2021/12/12 17:20:54;;;;;;;23.17;11.68;;;;;;;2.88;47.94;93103.47;5033794;28;20033;-75
2021/12/12 17:23:41;;;;;;;41.38;16.80;;;;;;;2.89;47.52;93105.03;5003865;28;20044;-79
2021/12/12 17:26:09;;;;;;;42.28;14.00;;;;;;;2.90;46.65;93104.03;5007932;28;20045;-75
2021/12/12 17:28:37;;;;;;;22.23;8.07;;;;;;;2.88;47.22;93106.03;5017977;28;20038;-77
2021/12/12 17:31:09;;;;;;;25.75;10.38;;;;;;;2.83;47.78;93109.28;5030485;28;20434;-79
2021/12/12 17:33:52;;;;;;;26.70;9.77;;;;;;;2.82;47.11;93110.31;5029866;28;20064;-75
2021/12/12 17:36:23;;;;;;;15.90;6.78;;;;;;;2.81;47.27;93100.97;5033334;28;20037;-74
2021/12/12 17:39:03;;;;;;;12.05;5.88;;;;;;;2.77;48.09;93096.47;5033660;28;20037;-75
2021/12/12 17:41:54;;;;;;;18.05;10.57;;;;;;;2.76;48.43;93097.50;5030523;28;20048;-75
2021/12/12 17:44:54;;;;;;;19.67;10.85;;;;;;;2.80;47.28;93093.47;4998252;28;20042;-75
2021/12/12 17:47:38;;;;;;;11.27;5.97;;;;;;;2.85;47.45;93094.34;5013375;28;20445;-75
2021/12/12 17:50:07;;;;;;;7.63;3.63;;;;;;;2.84;47.93;93092.78;5016484;28;20033;-75
2021/12/12 17:52:52;;;;;;;16.95;8.10;;;;;;;2.84;46.88;93094.59;4995066;28;20072;-75
2021/12/12 17:55:25;;;;;;;10.77;5.00;;;;;;;2.87;47.90;93102.69;5013930;28;20038;-76
2021/12/12 17:57:56;;;;;;;29.67;13.95;;;;;;;2.88;47.13;93099.09;5022569;28;20036;-77
2021/12/12 18:00:34;;;;;;;17.70;6.70;;;;;;;2.94;47.07;93105.16;5013496;28;20486;-77
2021/12/12 18:03:03;;;;;;;18.65;7.30;;;;;;;2.94;45.62;93112.13;5023354;28;20037;-76
2021/12/12 18:05:34;;;;;;;10.18;4.40;;;;;;;2.96;46.39;93105.72;5009908;28;20398;-75
2021/12/12 18:08:21;;;;;;;15.37;6.23;;;;;;;2.97;45.99;93107.28;5021610;28;20104;-76
2021/12/12 18:10:55;;;;;;;13.93;6.43;;;;;;;2.98;47.12;93113.25;5023263;28;20129;-75
2021/12/12 18:13:25;;;;;;;12.60;5.18;;;;;;;2.99;46.74;93105.25;5031293;28;20060;-74
2021/12/12 18:16:19;;;;;;;12.18;3.10;;;;;;;3.03;46.81;93108.97;5012524;28;20041;-75
2021/12/12 18:19:23;;;;;;;5.47;2.70;;;;;;;3.05;47.42;93117.31;5031411;28;20037;-75
2021/12/12 18:21:54;;;;;;;5.95;2.67;;;;;;;3.05;46.60;93122.47;5015592;28;20452;-75
2021/12/12 18:24:42;;;;;;;35.42;12.35;;;;;;;3.02;45.94;93120.34;5033030;28;20422;-75
2021/12/12 18:27:33;;;;;;;63.45;17.60;;;;;;;2.99;46.27;93117.41;5029416;28;20025;-77
2021/12/12 18:30:31;;;;;;;25.15;8.27;;;;;;;2.97;47.25;93120.22;5009863;28;20403;-76
2021/12/12 18:33:10;;;;;;;16.50;5.28;;;;;;;3.00;46.67;93119.78;5031125;28;20496;-78